Am Tubarao — A8ZA9 — position and weather

sailwx.info

Track history (hours):
 
Tides and Currents Weather Stations Pressure Air Temp Water Temp Dewpoint Dewpoint Depression Visibility Wind Speed Wind Dir Waves Ship Positions

Am Tubarao

Last reported at 2017-Dec-11 17:00 UTC. Time now 2017-Dec-13 05:36 UTC.
Position N 51°03' E 001°47'.

Length 230 m; draft 14.5 m.

Type: Cargo ship. MMSI: 636015171.

Date/timePositionNaut miles runAvg speedWind from/ knotsBaromVisibWave heightAir tempDewpointWater temp
2017-Dec-11 17:00N 51°03' E 001°47'0 0.9
2017-Dec-11 16:30N 51°03' E 001°47'1 2.4
2017-Dec-11 16:00N 51°03' E 001°49'1 1.3
2017-Dec-11 15:30N 51°04' E 001°48'1 2.5
2017-Dec-11 15:00N 51°03' E 001°47'0 0.8
2017-Dec-11 14:30N 51°02' E 001°46'0 0.9
2017-Dec-11 14:01N 51°03' E 001°46'1 1.1
2017-Dec-11 13:30N 51°03' E 001°46'0 0.1
2017-Dec-11 13:01N 51°03' E 001°46'0 0.7
2017-Dec-11 12:30N 51°03' E 001°47'0 0.2
2017-Dec-11 11:57N 51°03' E 001°47'0 0.0
2017-Dec-11 11:27N 51°03' E 001°47'0 0.0
2017-Dec-11 10:54N 51°03' E 001°47'0 0.0
2017-Dec-11 10:30N 51°03' E 001°47'0 0.0
2017-Dec-11 10:00N 51°03' E 001°47'0 0.0
2017-Dec-11 09:30N 51°03' E 001°47'0 0.0
2017-Dec-11 09:00N 51°03' E 001°47'0 0.0
2017-Dec-11 08:30N 51°03' E 001°47'0 0.4
2017-Dec-11 08:00N 51°03' E 001°47'1 2.5
2017-Dec-11 07:30N 51°03' E 001°45'2 4.4
2017-Dec-11 07:00N 51°02' E 001°42'3 5.4
2017-Dec-11 06:31N 51°01' E 001°38'3 5.5
2017-Dec-11 06:00N 50°59' E 001°35'4 8.2
2017-Dec-11 05:30N 50°56' E 001°31'57 7.0
2017-Dec-10 21:23N 50°22' E 000°19'6 6.7
2017-Dec-10 20:32N 50°21' E 000°10'0 6.9
2017-Dec-10 20:30N 50°21' E 000°10'3 6.7
2017-Dec-10 19:59N 50°20' E 000°04'3 6.9
2017-Dec-10 19:30N 50°19' W 000°01'4 7.1
2017-Dec-10 19:00N 50°18' W 000°06'65 9.5
2017-Dec-10 12:12N 50°01' W 001°44'312.2
2017-Dec-10 12:00N 50°01' W 001°47'3510.6
2017-Dec-10 08:42N 49°51' W 002°40'3 8.8
2017-Dec-10 08:20N 49°50' W 002°44'3 8.6
2017-Dec-10 07:58N 49°50' W 002°49'12 8.3
2017-Dec-10 06:35N 49°48' W 003°06'1 8.3
2017-Dec-10 06:30N 49°47' W 003°07'4 8.4
2017-Dec-10 06:00N 49°47' W 003°14'4 8.3
2017-Dec-10 05:30N 49°46' W 003°20'15 8.3
2017-Dec-10 03:41N 49°45' W 003°44'2 8.8
2017-Dec-10 03:30N 49°44' W 003°46'  
2017-Dec-01 20:00N 51°54' W 051°36'   180 / 81024.0 5.4 2.0 -0.0
Track history (hours):
 
Tides and Currents Weather Stations Pressure Air Temp Water Temp Dewpoint Dewpoint Depression Visibility Wind Speed Wind Dir Waves Ship Positions

Am Tubarao

Last reported at 2017-Dec-11 17:00 UTC. Time now 2017-Dec-13 05:37 UTC.
Position N 51°03' E 001°47'.

Length 230 m; draft 14.5 m.

Type: Cargo ship. MMSI: 636015171.

Date/timePositionNaut miles runAvg speedWind from/ knotsBaromVisibWave heightAir tempDewpointWater temp
2017-Dec-11 17:00N 51°03' E 001°47'0 0.9
2017-Dec-11 16:30N 51°03' E 001°47'1 2.4
2017-Dec-11 16:00N 51°03' E 001°49'1 1.3
2017-Dec-11 15:30N 51°04' E 001°48'1 2.5
2017-Dec-11 15:00N 51°03' E 001°47'0 0.8
2017-Dec-11 14:30N 51°02' E 001°46'0 0.9
2017-Dec-11 14:01N 51°03' E 001°46'1 1.1
2017-Dec-11 13:30N 51°03' E 001°46'0 0.1
2017-Dec-11 13:01N 51°03' E 001°46'0 0.7
2017-Dec-11 12:30N 51°03' E 001°47'0 0.2
2017-Dec-11 11:57N 51°03' E 001°47'0 0.0
2017-Dec-11 11:27N 51°03' E 001°47'0 0.0
2017-Dec-11 10:54N 51°03' E 001°47'0 0.0
2017-Dec-11 10:30N 51°03' E 001°47'0 0.0
2017-Dec-11 10:00N 51°03' E 001°47'0 0.0
2017-Dec-11 09:30N 51°03' E 001°47'0 0.0
2017-Dec-11 09:00N 51°03' E 001°47'0 0.0
2017-Dec-11 08:30N 51°03' E 001°47'0 0.4
2017-Dec-11 08:00N 51°03' E 001°47'1 2.5
2017-Dec-11 07:30N 51°03' E 001°45'2 4.4
2017-Dec-11 07:00N 51°02' E 001°42'3 5.4
2017-Dec-11 06:31N 51°01' E 001°38'3 5.5
2017-Dec-11 06:00N 50°59' E 001°35'4 8.2
2017-Dec-11 05:30N 50°56' E 001°31'57 7.0
2017-Dec-10 21:23N 50°22' E 000°19'6 6.7
2017-Dec-10 20:32N 50°21' E 000°10'0 6.9
2017-Dec-10 20:30N 50°21' E 000°10'3 6.7
2017-Dec-10 19:59N 50°20' E 000°04'3 6.9
2017-Dec-10 19:30N 50°19' W 000°01'4 7.1
2017-Dec-10 19:00N 50°18' W 000°06'65 9.5
2017-Dec-10 12:12N 50°01' W 001°44'312.2
2017-Dec-10 12:00N 50°01' W 001°47'3510.6
2017-Dec-10 08:42N 49°51' W 002°40'3 8.8
2017-Dec-10 08:20N 49°50' W 002°44'3 8.6
2017-Dec-10 07:58N 49°50' W 002°49'12 8.3
2017-Dec-10 06:35N 49°48' W 003°06'1 8.3
2017-Dec-10 06:30N 49°47' W 003°07'4 8.4
2017-Dec-10 06:00N 49°47' W 003°14'4 8.3
2017-Dec-10 05:30N 49°46' W 003°20'15 8.3
2017-Dec-10 03:41N 49°45' W 003°44'2 8.8
2017-Dec-10 03:30N 49°44' W 003°46'  
2017-Dec-01 20:00N 51°54' W 051°36'   180 / 81024.0 5.4 2.0 -0.0

Dump ship's entire track history